Wetterdaten: Woche 02.07.18 - 08.07.18 (KW27)
Datum Zeit Temp. A. Feuchte A. Luftdruck Regen Wind Richtung Taupunkt Windchill Windben
02.07.2018 00:00 12,1 C 67 % 1017,8 hPa 0,0 l/m 0,3 km/h N 6,0 C 12,1 C 2,0 km/h
02.07.2018 01:00 11,1 C 70 % 1017,7 hPa 0,0 l/m 0,1 km/h N 5,7 C 11,1 C 2,0 km/h
02.07.2018 02:00 10,4 C 72 % 1017,4 hPa 0,0 l/m 0,1 km/h N 5,6 C 10,4 C 1,6 km/h
02.07.2018 03:00 9,5 C 76 % 1017,3 hPa 0,0 l/m 0,1 km/h N 5,4 C 9,5 C 1,2 km/h
02.07.2018 04:00 9,0 C 78 % 1017,2 hPa 0,0 l/m 0,1 km/h N 5,4 C 9,0 C 2,0 km/h
02.07.2018 05:00 8,7 C 79 % 1017,0 hPa 0,0 l/m 0,1 km/h N 5,3 C 8,7 C 1,2 km/h
02.07.2018 06:00 8,5 C 80 % 1017,0 hPa 0,0 l/m 0,0 km/h N 5,3 C 8,5 C 0,0 km/h
02.07.2018 07:00 10,0 C 81 % 1017,0 hPa 0,0 l/m 0,0 km/h N 6,8 C 10,0 C 0,4 km/h
02.07.2018 08:00 14,0 C 71 % 1016,7 hPa 0,0 l/m 0,0 km/h N 8,7 C 14,0 C 2,8 km/h
02.07.2018 09:00 19,0 C 56 % 1016,4 hPa 0,0 l/m 0,2 km/h N 9,9 C 19,0 C 4,8 km/h
02.07.2018 10:00 21,4 C 47 % 1016,0 hPa 0,0 l/m 1,0 km/h N 9,5 C 21,4 C 7,2 km/h
02.07.2018 11:00 22,6 C 45 % 1015,6 hPa 0,0 l/m 1,7 km/h N 9,9 C 22,6 C 8,4 km/h
02.07.2018 12:00 24,0 C 46 % 1015,2 hPa 0,0 l/m 0,9 km/h N 11,7 C 24,0 C 9,3 km/h
02.07.2018 13:00 24,2 C 45 % 1014,7 hPa 0,0 l/m 1,8 km/h N 11,4 C 24,2 C 11,7 km/h
02.07.2018 14:00 24,3 C 45 % 1014,2 hPa 0,0 l/m 2,5 km/h N 11,6 C 24,3 C 12,9 km/h
02.07.2018 15:00 23,7 C 45 % 1014,0 hPa 0,0 l/m 2,6 km/h N 10,9 C 23,7 C 12,9 km/h
02.07.2018 16:00 23,1 C 47 % 1013,8 hPa 0,0 l/m 2,0 km/h N 11,0 C 23,1 C 11,7 km/h
02.07.2018 17:00 23,3 C 46 % 1013,7 hPa 0,0 l/m 1,3 km/h N 11,0 C 23,3 C 9,3 km/h
02.07.2018 18:00 24,4 C 45 % 1013,6 hPa 0,0 l/m 1,4 km/h N 11,7 C 24,4 C 10,5 km/h
02.07.2018 19:00 24,5 C 44 % 1013,7 hPa 0,0 l/m 0,6 km/h N 11,5 C 24,5 C 6,4 km/h
02.07.2018 20:00 23,2 C 46 % 1013,9 hPa 0,0 l/m 0,0 km/h N 10,9 C 23,2 C 1,6 km/h
02.07.2018 21:00 19,8 C 55 % 1014,5 hPa 0,0 l/m 0,0 km/h N 10,3 C 19,8 C 0,4 km/h
02.07.2018 22:00 17,0 C 64 % 1015,0 hPa 0,0 l/m 0,1 km/h N 10,1 C 17,0 C 2,0 km/h
02.07.2018 23:00 15,2 C 70 % 1015,3 hPa 0,0 l/m 0,1 km/h N 9,6 C 15,2 C 1,2 km/h
03.07.2018 00:00 14,4 C 74 % 1015,2 hPa 0,0 l/m 0,3 km/h N 9,8 C 14,4 C 3,2 km/h
03.07.2018 01:00 14,2 C 74 % 1015,3 hPa 0,0 l/m 0,3 km/h N 9,6 C 14,2 C 3,6 km/h
03.07.2018 02:00 13,4 C 76 % 1015,2 hPa 0,0 l/m 0,1 km/h N 9,3 C 13,4 C 1,2 km/h
03.07.2018 03:00 12,6 C 79 % 1015,2 hPa 0,0 l/m 0,3 km/h N 9,0 C 12,6 C 3,6 km/h
03.07.2018 04:00 11,8 C 80 % 1015,3 hPa 0,0 l/m 0,0 km/h N 8,4 C 11,8 C 0,0 km/h
03.07.2018 05:00 11,0 C 81 % 1015,7 hPa 0,0 l/m 0,0 km/h N 7,9 C 11,0 C 0,0 km/h
03.07.2018 06:00 11,4 C 82 % 1016,1 hPa 0,0 l/m 0,0 km/h N 8,5 C 11,4 C 1,2 km/h
03.07.2018 07:00 13,1 C 81 % 1016,3 hPa 0,0 l/m 0,1 km/h N 9,9 C 13,1 C 2,0 km/h
03.07.2018 08:00 17,0 C 69 % 1016,5 hPa 0,0 l/m 0,1 km/h N 11,2 C 17,0 C 2,8 km/h
03.07.2018 09:00 21,6 C 56 % 1016,3 hPa 0,0 l/m 0,0 km/h N 12,3 C 21,6 C 1,2 km/h
03.07.2018 10:00 23,8 C 53 % 1015,9 hPa 0,0 l/m 0,3 km/h N 13,5 C 23,8 C 4,8 km/h
03.07.2018 11:00 24,8 C 48 % 1015,7 hPa 0,0 l/m 0,7 km/h N 13,0 C 24,8 C 6,0 km/h
03.07.2018 12:00 26,6 C 42 % 1015,3 hPa 0,0 l/m 0,3 km/h N 12,7 C 26,6 C 6,0 km/h
03.07.2018 13:00 25,7 C 42 % 1015,1 hPa 0,0 l/m 1,6 km/h N 11,6 C 25,7 C 7,6 km/h
03.07.2018 14:00 26,5 C 41 % 1014,7 hPa 0,0 l/m 1,3 km/h N 12,3 C 26,5 C 7,2 km/h
03.07.2018 15:00 27,1 C 42 % 1014,4 hPa 0,0 l/m 1,5 km/h N 12,9 C 27,1 C 6,8 km/h
03.07.2018 16:00 26,3 C 40 % 1014,3 hPa 0,0 l/m 0,8 km/h N 11,7 C 26,3 C 5,6 km/h
03.07.2018 17:00 26,4 C 41 % 1014,3 hPa 0,0 l/m 1,8 km/h N 12,0 C 26,4 C 8,4 km/h
03.07.2018 18:00 27,1 C 40 % 1014,3 hPa 0,0 l/m 2,4 km/h N 12,1 C 27,1 C 9,7 km/h
03.07.2018 19:00 27,6 C 38 % 1014,2 hPa 0,0 l/m 0,4 km/h N 12,1 C 27,6 C 4,4 km/h
03.07.2018 20:00 26,3 C 42 % 1014,0 hPa 0,0 l/m 0,0 km/h N 12,1 C 26,3 C 0,0 km/h
03.07.2018 21:00 21,9 C 52 % 1014,5 hPa 0,0 l/m 0,0 km/h N 11,6 C 21,9 C 0,4 km/h
03.07.2018 22:00 18,7 C 62 % 1015,0 hPa 0,0 l/m 0,0 km/h N 11,3 C 18,7 C 0,4 km/h
03.07.2018 23:00 17,4 C 69 % 1014,8 hPa 0,0 l/m 0,4 km/h N 11,5 C 17,4 C 2,8 km/h
04.07.2018 00:00 17,0 C 70 % 1014,7 hPa 0,0 l/m 0,0 km/h N 11,5 C 17,0 C 0,8 km/h
04.07.2018 01:00 16,1 C 74 % 1014,8 hPa 0,0 l/m 0,0 km/h N 11,4 C 16,1 C 0,8 km/h
04.07.2018 02:00 15,7 C 76 % 1014,8 hPa 0,0 l/m 0,0 km/h N 11,5 C 15,7 C 0,8 km/h
04.07.2018 03:00 15,2 C 77 % 1014,9 hPa 0,0 l/m 0,1 km/h N 11,2 C 15,2 C 1,2 km/h
04.07.2018 04:00 14,2 C 79 % 1014,7 hPa 0,0 l/m 0,0 km/h N 10,5 C 14,2 C 0,8 km/h
04.07.2018 05:00 13,5 C 80 % 1014,8 hPa 0,0 l/m 0,0 km/h N 10,0 C 13,5 C 0,4 km/h
04.07.2018 06:00 14,1 C 81 % 1014,7 hPa 0,0 l/m 0,0 km/h N 10,8 C 14,1 C 0,0 km/h
04.07.2018 07:00 15,7 C 80 % 1014,9 hPa 0,0 l/m 0,0 km/h N 12,2 C 15,7 C 0,8 km/h
04.07.2018 08:00 19,1 C 70 % 1014,9 hPa 0,0 l/m 0,1 km/h N 13,5 C 19,1 C 2,0 km/h
04.07.2018 09:00 23,7 C 57 % 1014,9 hPa 0,0 l/m 0,2 km/h N 14,6 C 23,7 C 2,4 km/h
04.07.2018 10:00 26,5 C 51 % 1014,6 hPa 0,0 l/m 0,2 km/h N 15,3 C 26,5 C 3,2 km/h
04.07.2018 11:00 28,6 C 44 % 1014,3 hPa 0,0 l/m 0,7 km/h N 15,0 C 28,6 C 6,8 km/h
04.07.2018 12:00 28,3 C 36 % 1014,0 hPa 0,0 l/m 2,2 km/h N 11,8 C 28,3 C 10,5 km/h
04.07.2018 13:00 28,5 C 35 % 1013,6 hPa 0,0 l/m 3,2 km/h N 11,7 C 28,5 C 14,9 km/h
04.07.2018 14:00 29,6 C 37 % 1013,1 hPa 0,0 l/m 1,8 km/h N 13,2 C 29,6 C 13,3 km/h
04.07.2018 15:00 28,8 C 38 % 1012,9 hPa 0,0 l/m 4,0 km/h N 13,1 C 28,8 C 14,5 km/h
04.07.2018 16:00 28,7 C 41 % 1012,8 hPa 0,0 l/m 3,5 km/h N 14,0 C 28,7 C 15,3 km/h
04.07.2018 17:00 28,3 C 39 % 1012,7 hPa 0,0 l/m 3,3 km/h N 12,8 C 28,3 C 16,9 km/h
04.07.2018 18:00 28,4 C 40 % 1012,3 hPa 0,0 l/m 0,3 km/h N 13,5 C 28,4 C 5,6 km/h
04.07.2018 19:00 27,5 C 44 % 1012,2 hPa 0,0 l/m 0,0 km/h N 14,1 C 27,5 C 0,8 km/h
04.07.2018 20:00 26,2 C 46 % 1012,0 hPa 0,0 l/m 0,0 km/h N 13,7 C 26,2 C 0,8 km/h
04.07.2018 21:00 23,9 C 50 % 1012,1 hPa 0,0 l/m 0,0 km/h N 12,9 C 23,9 C 0,4 km/h
04.07.2018 22:00 22,0 C 55 % 1012,1 hPa 0,0 l/m 0,0 km/h N 12,3 C 22,0 C 0,0 km/h
04.07.2018 23:00 21,0 C 57 % 1012,0 hPa 0,0 l/m 0,0 km/h N 12,1 C 21,0 C 0,0 km/h
05.07.2018 00:00 20,2 C 59 % 1012,1 hPa 0,0 l/m 0,0 km/h N 12,0 C 20,2 C 0,4 km/h
05.07.2018 01:00 20,0 C 64 % 1011,9 hPa 0,0 l/m 0,0 km/h N 13,0 C 20,0 C 0,0 km/h
05.07.2018 02:00 20,3 C 68 % 1011,7 hPa 0,0 l/m 0,0 km/h N 14,3 C 20,3 C 0,8 km/h
05.07.2018 03:00 20,5 C 69 % 1011,6 hPa 0,0 l/m 0,0 km/h N 14,7 C 20,5 C 0,0 km/h
05.07.2018 04:00 20,5 C 70 % 1011,5 hPa 0,0 l/m 0,0 km/h N 14,8 C 20,5 C 1,2 km/h
05.07.2018 05:00 20,2 C 71 % 1011,6 hPa 0,0 l/m 0,0 km/h N 14,7 C 20,2 C 0,4 km/h
05.07.2018 06:00 19,8 C 76 % 1011,7 hPa 0,0 l/m 0,0 km/h N 15,4 C 19,8 C 0,4 km/h
05.07.2018 07:00 21,8 C 72 % 1011,6 hPa 0,0 l/m 0,0 km/h N 16,5 C 21,8 C 0,8 km/h
05.07.2018 08:00 25,0 C 62 % 1011,5 hPa 0,0 l/m 0,2 km/h N 17,2 C 25,0 C 3,6 km/h
05.07.2018 09:00 28,8 C 51 % 1011,1 hPa 0,0 l/m 0,2 km/h N 17,4 C 28,8 C 2,4 km/h
05.07.2018 10:00 29,5 C 47 % 1010,8 hPa 0,0 l/m 0,8 km/h N 17,0 C 29,5 C 7,6 km/h
05.07.2018 11:00 29,7 C 48 % 1010,5 hPa 0,0 l/m 0,9 km/h N 17,6 C 29,7 C 6,4 km/h
05.07.2018 12:00 31,1 C 45 % 1009,9 hPa 0,0 l/m 0,4 km/h N 17,8 C 31,1 C 4,8 km/h
05.07.2018 13:00 31,6 C 42 % 1009,2 hPa 0,0 l/m 0,6 km/h N 16,9 C 31,6 C 6,0 km/h
05.07.2018 14:00 31,5 C 40 % 1008,5 hPa 0,0 l/m 1,7 km/h N 16,3 C 31,5 C 9,3 km/h
05.07.2018 15:00 31,7 C 42 % 1007,8 hPa 0,0 l/m 0,6 km/h N 17,0 C 31,7 C 6,4 km/h
05.07.2018 16:00 30,6 C 44 % 1007,7 hPa 0,0 l/m 1,2 km/h N 17,0 C 30,6 C 6,8 km/h
05.07.2018 17:00 30,2 C 45 % 1007,1 hPa 0,0 l/m 0,6 km/h N 16,9 C 30,2 C 7,6 km/h
05.07.2018 18:00 31,0 C 44 % 1006,7 hPa 0,0 l/m 0,2 km/h N 17,2 C 31,0 C 3,2 km/h
05.07.2018 19:00 30,3 C 47 % 1007,0 hPa 0,0 l/m 0,6 km/h N 17,6 C 30,3 C 6,8 km/h
05.07.2018 20:00 26,5 C 57 % 1008,0 hPa 0,0 l/m 2,0 km/h N 17,2 C 26,5 C 9,6 km/h
05.07.2018 21:00 23,8 C 66 % 1008,8 hPa 0,0 l/m 1,4 km/h N 17,1 C 23,8 C 8,4 km/h
05.07.2018 22:00 22,8 C 68 % 1008,8 hPa 0,0 l/m 1,9 km/h N 16,6 C 22,8 C 10,5 km/h
05.07.2018 23:00 23,2 C 65 % 1009,5 hPa 0,0 l/m 1,2 km/h N 16,2 C 23,2 C 9,2 km/h
06.07.2018 00:00 22,2 C 67 % 1010,1 hPa 0,0 l/m 3,6 km/h N 15,8 C 22,2 C 18,5 km/h
06.07.2018 01:00 20,0 C 76 % 1010,0 hPa 1,3 l/m 8,7 km/h N 15,6 C 19,0 C 26,2 km/h
06.07.2018 02:00 19,2 C 79 % 1009,3 hPa 0,0 l/m 9,1 km/h N 15,5 C 18,1 C 25,7 km/h
06.07.2018 03:00 20,0 C 76 % 1009,2 hPa 0,0 l/m 8,6 km/h N 15,5 C 19,2 C 26,5 km/h
06.07.2018 04:00 20,3 C 73 % 1009,1 hPa 0,0 l/m 7,5 km/h N 15,3 C 19,8 C 27,0 km/h
06.07.2018 05:00 20,5 C 71 % 1009,4 hPa 0,0 l/m 11,0 km/h N 15,1 C 18,9 C 29,8 km/h
06.07.2018 06:00 20,5 C 71 % 1009,8 hPa 0,0 l/m 9,9 km/h N 15,1 C 19,3 C 27,4 km/h
06.07.2018 07:00 20,5 C 72 % 1010,6 hPa 0,0 l/m 8,2 km/h N 15,1 C 19,8 C 27,3 km/h
06.07.2018 08:00 20,2 C 73 % 1011,4 hPa 0,0 l/m 7,2 km/h N 15,3 C 19,8 C 22,9 km/h
06.07.2018 09:00 20,1 C 75 % 1011,9 hPa 0,0 l/m 6,6 km/h N 15,5 C 19,7 C 24,5 km/h
06.07.2018 10:00 20,4 C 75 % 1012,3 hPa 0,0 l/m 4,8 km/h N 15,9 C 20,4 C 18,9 km/h
06.07.2018 11:00 20,9 C 75 % 1012,3 hPa 0,0 l/m 5,1 km/h N 16,2 C 20,7 C 20,5 km/h
06.07.2018 12:00 21,2 C 74 % 1012,1 hPa 0,0 l/m 6,8 km/h N 16,4 C 21,0 C 24,5 km/h
06.07.2018 13:00 21,1 C 76 % 1012,3 hPa 0,0 l/m 8,8 km/h N 16,7 C 20,3 C 26,5 km/h
06.07.2018 14:00 21,7 C 75 % 1012,0 hPa 0,0 l/m 6,5 km/h N 17,1 C 21,4 C 23,3 km/h
06.07.2018 15:00 22,3 C 73 % 1011,6 hPa 0,0 l/m 9,0 km/h N 17,2 C 21,5 C 27,4 km/h
06.07.2018 16:00 22,4 C 72 % 1011,5 hPa 0,0 l/m 10,8 km/h N 17,2 C 21,1 C 28,6 km/h
06.07.2018 17:00 22,7 C 71 % 1011,5 hPa 0,0 l/m 8,0 km/h N 17,1 C 22,1 C 31,4 km/h
06.07.2018 18:00 22,8 C 70 % 1012,1 hPa 0,0 l/m 9,5 km/h N 17,1 C 21,9 C 27,8 km/h
06.07.2018 19:00 21,5 C 74 % 1012,3 hPa 0,0 l/m 8,3 km/h N 16,7 C 20,8 C 23,3 km/h
06.07.2018 20:00 20,4 C 78 % 1013,3 hPa 0,3 l/m 11,2 km/h N 16,4 C 18,8 C 30,6 km/h
06.07.2018 21:00 18,9 C 81 % 1014,5 hPa 2,6 l/m 4,5 km/h N 15,6 C 18,8 C 16,1 km/h
06.07.2018 22:00 18,3 C 81 % 1014,9 hPa 4,4 l/m 2,3 km/h N 14,9 C 18,3 C 11,3 km/h
06.07.2018 23:00 18,3 C 82 % 1015,5 hPa 1,8 l/m 1,0 km/h N 15,1 C 18,3 C 8,0 km/h
07.07.2018 00:00 18,2 C 82 % 1015,6 hPa 0,0 l/m 4,0 km/h N 15,1 C 18,2 C 16,1 km/h
07.07.2018 01:00 18,4 C 81 % 1016,0 hPa 0,0 l/m 5,0 km/h N 15,1 C 18,3 C 18,1 km/h
07.07.2018 02:00 18,3 C 82 % 1016,0 hPa 0,0 l/m 5,7 km/h N 15,1 C 18,2 C 15,7 km/h
07.07.2018 03:00 18,2 C 81 % 1016,0 hPa 0,0 l/m 9,5 km/h N 14,9 C 16,9 C 20,9 km/h
07.07.2018 04:00 17,8 C 81 % 1016,1 hPa 0,0 l/m 7,8 km/h N 14,5 C 17,2 C 19,3 km/h
07.07.2018 05:00 17,6 C 80 % 1016,4 hPa 0,0 l/m 5,4 km/h N 14,1 C 17,6 C 16,1 km/h
07.07.2018 06:00 17,5 C 80 % 1016,9 hPa 0,0 l/m 5,7 km/h N 13,9 C 17,4 C 16,1 km/h
07.07.2018 07:00 18,3 C 78 % 1017,2 hPa 0,0 l/m 7,6 km/h N 14,4 C 17,7 C 20,1 km/h
07.07.2018 08:00 19,5 C 74 % 1017,4 hPa 0,0 l/m 6,9 km/h N 14,7 C 19,1 C 21,7 km/h
07.07.2018 09:00 20,8 C 69 % 1017,4 hPa 0,0 l/m 8,4 km/h N 14,9 C 20,1 C 25,0 km/h
07.07.2018 10:00 21,6 C 64 % 1017,3 hPa 0,0 l/m 7,8 km/h N 14,4 C 21,1 C 20,9 km/h
07.07.2018 11:00 23,1 C 58 % 1017,3 hPa 0,0 l/m 8,5 km/h N 14,2 C 22,5 C 27,0 km/h
07.07.2018 12:00 23,8 C 55 % 1017,0 hPa 0,0 l/m 8,4 km/h N 14,2 C 23,3 C 25,8 km/h
07.07.2018 13:00 24,7 C 52 % 1016,7 hPa 0,0 l/m 8,0 km/h N 14,0 C 24,3 C 24,9 km/h
07.07.2018 14:00 25,1 C 48 % 1016,2 hPa 0,0 l/m 8,7 km/h N 13,1 C 24,6 C 24,9 km/h
07.07.2018 15:00 25,3 C 48 % 1015,9 hPa 0,0 l/m 8,9 km/h N 13,4 C 24,7 C 23,7 km/h
07.07.2018 16:00 24,9 C 51 % 1015,8 hPa 0,0 l/m 7,8 km/h N 14,1 C 24,6 C 23,7 km/h
07.07.2018 17:00 25,4 C 49 % 1015,5 hPa 0,0 l/m 7,4 km/h N 13,8 C 25,1 C 21,7 km/h
07.07.2018 18:00 25,5 C 45 % 1015,3 hPa 0,0 l/m 6,9 km/h N 12,8 C 25,4 C 18,5 km/h
07.07.2018 19:00 25,1 C 42 % 1015,3 hPa 0,0 l/m 4,5 km/h N 11,1 C 25,1 C 17,3 km/h
07.07.2018 20:00 24,3 C 38 % 1015,6 hPa 0,0 l/m 5,8 km/h N 8,9 C 24,2 C 18,5 km/h
07.07.2018 21:00 22,6 C 44 % 1016,2 hPa 0,0 l/m 2,6 km/h N 9,5 C 22,6 C 11,7 km/h
07.07.2018 22:00 21,5 C 47 % 1016,6 hPa 0,0 l/m 3,5 km/h N 9,6 C 21,5 C 13,7 km/h
07.07.2018 23:00 20,3 C 49 % 1017,0 hPa 0,0 l/m 1,6 km/h N 9,1 C 20,3 C 10,1 km/h
08.07.2018 00:00 20,1 C 46 % 1017,0 hPa 0,0 l/m 2,3 km/h N 8,0 C 20,1 C 11,7 km/h
08.07.2018 01:00 20,0 C 45 % 1016,9 hPa 0,0 l/m 3,4 km/h N 7,5 C 20,0 C 14,5 km/h
08.07.2018 02:00 19,3 C 46 % 1016,9 hPa 0,0 l/m 1,5 km/h N 7,5 C 19,3 C 8,8 km/h
08.07.2018 03:00 18,8 C 48 % 1016,7 hPa 0,0 l/m 2,8 km/h N 7,4 C 18,8 C 9,3 km/h
08.07.2018 04:00 19,0 C 46 % 1016,5 hPa 0,0 l/m 4,4 km/h N 7,1 C 19,0 C 12,5 km/h
08.07.2018 05:00 18,6 C 49 % 1016,4 hPa 0,0 l/m 1,8 km/h N 7,7 C 18,6 C 10,1 km/h
08.07.2018 06:00 18,5 C 53 % 1016,6 hPa 0,0 l/m 1,9 km/h N 8,6 C 18,5 C 10,1 km/h
08.07.2018 07:00 18,9 C 53 % 1016,7 hPa 0,0 l/m 4,1 km/h N 9,0 C 18,9 C 13,7 km/h
08.07.2018 08:00 19,8 C 51 % 1016,9 hPa 0,0 l/m 6,3 km/h N 9,3 C 19,7 C 18,1 km/h
08.07.2018 09:00 20,6 C 52 % 1016,9 hPa 0,0 l/m 5,4 km/h N 10,3 C 20,6 C 18,9 km/h
08.07.2018 10:00 20,5 C 55 % 1017,1 hPa 0,0 l/m 5,2 km/h N 11,2 C 20,5 C 14,1 km/h
08.07.2018 11:00 20,9 C 59 % 1017,0 hPa 0,0 l/m 3,7 km/h N 12,5 C 20,9 C 12,5 km/h
08.07.2018 12:00 22,7 C 54 % 1016,6 hPa 0,0 l/m 5,6 km/h N 12,8 C 22,6 C 16,5 km/h
08.07.2018 13:00 24,2 C 47 % 1016,2 hPa 0,0 l/m 6,7 km/h N 12,2 C 24,1 C 18,9 km/h
08.07.2018 14:00 25,0 C 45 % 1015,8 hPa 0,0 l/m 7,6 km/h N 12,3 C 24,8 C 24,9 km/h
08.07.2018 15:00 25,2 C 44 % 1015,5 hPa 0,0 l/m 8,4 km/h N 12,1 C 24,7 C 22,9 km/h
08.07.2018 16:00 25,0 C 46 % 1015,4 hPa 0,0 l/m 7,6 km/h N 12,4 C 24,7 C 23,7 km/h
08.07.2018 17:00 25,4 C 44 % 1015,5 hPa 0,0 l/m 7,2 km/h N 12,2 C 25,2 C 24,9 km/h
08.07.2018 18:00 25,3 C 43 % 1015,5 hPa 0,0 l/m 6,0 km/h N 11,8 C 25,2 C 18,5 km/h
08.07.2018 19:00 24,8 C 45 % 1015,6 hPa 0,0 l/m 3,5 km/h N 11,8 C 24,8 C 11,7 km/h
08.07.2018 20:00 23,6 C 48 % 1015,9 hPa 0,0 l/m 0,9 km/h N 12,1 C 23,6 C 6,4 km/h
08.07.2018 21:00 22,8 C 51 % 1016,3 hPa 0,0 l/m 1,1 km/h N 12,0 C 22,8 C 6,8 km/h
08.07.2018 22:00 22,0 C 52 % 1016,8 hPa 0,0 l/m 0,4 km/h N 11,8 C 22,0 C 4,8 km/h
08.07.2018 23:00 21,0 C 55 % 1017,0 hPa 0,0 l/m 1,2 km/h N 11,5 C 21,0 C 6,4 km/h
Min-Datum _ 02.07.18 04.07.18 05.07.18 - 02.07.18 - 02.07.18 02.07.18 02.07.18
_ Min-Zeit 06:15 13:15 18:45 - 00:30 - 06:00 06:00 00:30
Minimum _ 8,4 C 34 % 1006,6 hPa - 0,0 km/h - 5,0 C 8,4 C 0,0 km/h
Max-Datum _ 05.07.18 03.07.18 02.07.18 06.07.18 06.07.18 - 05.07.18 05.07.18 06.07.18
_ Max-Zeit 14:15 05:45 00:00 22:00 05:30 - 18:45 14:00 04:45
Maximum _ 32,2 C 82 % 1017,9 hPa 4,4 l/m 14,0 km/h
N
- 18,4 C 32,1 C 37,0 km/h
N
Durchschnitt _ 21,5 C 59 % 1014,1 hPa #10,4 l/m 2,9 km/h N 12,7 C 21,3 C 10,9 km/h